createdAt,value
2019-02-25T00:00:02.723Z,61.50
2019-02-25T00:01:10.012Z,61.50
2019-02-25T00:02:15.723Z,61.80
2019-02-25T00:03:21.125Z,61.60
2019-02-25T00:04:26.047Z,61.60
2019-02-25T00:05:35.842Z,61.60
2019-02-25T00:06:42.797Z,61.70
2019-02-25T00:07:49.624Z,61.60
2019-02-25T00:08:55.072Z,61.60
2019-02-25T00:10:00.970Z,61.70
2019-02-25T00:11:09.730Z,61.80
2019-02-25T00:12:13.727Z,61.60
2019-02-25T00:13:20.196Z,61.50
2019-02-25T00:14:26.084Z,61.50
2019-02-25T00:15:34.876Z,61.50
2019-02-25T00:16:43.895Z,61.60
2019-02-25T00:17:50.656Z,61.60
2019-02-25T00:18:59.179Z,61.60
2019-02-25T00:20:04.389Z,61.50
2019-02-25T00:21:08.664Z,61.50
2019-02-25T00:22:25.266Z,61.40
2019-02-25T00:23:30.156Z,61.50
2019-02-25T00:24:42.272Z,61.60
2019-02-25T00:25:49.444Z,61.70
2019-02-25T00:26:55.398Z,61.80
2019-02-25T00:28:05.932Z,61.90
2019-02-25T00:29:19.352Z,61.90
2019-02-25T00:30:27.196Z,61.90
2019-02-25T00:31:31.751Z,61.90
2019-02-25T00:34:05.684Z,62.00
2019-02-25T00:35:13.147Z,62.20
2019-02-25T00:36:18.606Z,62.30
2019-02-25T00:37:24.440Z,62.30
2019-02-25T00:38:30.894Z,63.10
2019-02-25T00:39:35.412Z,62.30
2019-02-25T00:40:39.700Z,62.40
2019-02-25T00:41:45.648Z,62.60
2019-02-25T00:42:55.990Z,62.60
2019-02-25T00:44:04.134Z,62.50
2019-02-25T00:45:14.746Z,62.70
2019-02-25T00:46:21.266Z,62.50
2019-02-25T00:47:27.463Z,62.60
2019-02-25T00:48:42.442Z,62.40
2019-02-25T00:49:48.040Z,62.40
2019-02-25T00:50:53.930Z,62.40
2019-02-25T00:52:00.888Z,62.50
2019-02-25T00:53:05.694Z,62.50
2019-02-25T00:54:10.230Z,62.50
2019-02-25T00:55:17.202Z,62.50
2019-02-25T00:56:23.314Z,62.50
2019-02-25T00:57:30.446Z,62.50
2019-02-25T00:58:35.014Z,62.50
2019-02-25T00:59:43.712Z,62.50
2019-02-25T01:00:48.670Z,62.20
2019-02-25T01:02:02.698Z,63.00
2019-02-25T01:03:07.094Z,62.30
2019-02-25T01:04:12.378Z,62.20
2019-02-25T01:05:22.804Z,62.20
2019-02-25T01:06:27.967Z,62.00
2019-02-25T01:07:34.425Z,61.90
2019-02-25T01:08:38.742Z,61.90
2019-02-25T01:09:43.206Z,62.00
2019-02-25T01:10:47.270Z,61.80
2019-02-25T01:11:52.603Z,61.60
2019-02-25T01:13:00.221Z,61.80
2019-02-25T01:14:08.895Z,61.60
2019-02-25T01:15:23.053Z,61.60
2019-02-25T01:16:30.531Z,61.50
2019-02-25T01:17:35.742Z,61.60
2019-02-25T01:18:41.055Z,61.60
2019-02-25T01:19:46.444Z,61.60
2019-02-25T01:20:50.616Z,61.70
2019-02-25T01:21:56.986Z,61.60
2019-02-25T01:23:02.084Z,61.60
2019-02-25T01:24:06.383Z,61.50
2019-02-25T01:25:15.706Z,61.60
2019-02-25T01:26:21.808Z,61.50
2019-02-25T01:27:27.132Z,61.40
2019-02-25T01:28:33.818Z,61.60
2019-02-25T01:29:38.783Z,61.60
2019-02-25T01:30:42.878Z,61.60
2019-02-25T01:31:47.020Z,61.70
2019-02-25T01:32:53.337Z,61.50
2019-02-25T01:33:57.594Z,62.50
2019-02-25T01:35:03.184Z,61.60
2019-02-25T01:36:07.398Z,61.60
2019-02-25T01:37:11.627Z,61.70
2019-02-25T01:38:15.899Z,61.80
2019-02-25T01:39:21.889Z,61.80
2019-02-25T01:40:25.908Z,61.80
2019-02-25T01:41:30.155Z,61.80
2019-02-25T01:42:34.366Z,61.60
2019-02-25T01:43:38.355Z,61.80
2019-02-25T01:44:42.356Z,61.80
2019-02-25T01:45:49.221Z,61.80
2019-02-25T01:46:53.228Z,61.90
2019-02-25T01:47:57.189Z,62.00
2019-02-25T01:49:02.762Z,61.90
2019-02-25T01:50:12.639Z,62.00
2019-02-25T01:51:18.502Z,62.10
2019-02-25T01:52:23.099Z,62.30
2019-02-25T01:53:30.590Z,62.30
2019-02-25T01:54:34.660Z,62.40
2019-02-25T01:55:38.602Z,62.30
2019-02-25T01:56:42.538Z,62.60
2019-02-25T01:57:49.536Z,62.60
2019-02-25T01:58:56.324Z,62.50
2019-02-25T02:00:00.421Z,62.50
2019-02-25T02:01:06.302Z,62.40
2019-02-25T02:02:11.863Z,62.50
2019-02-25T02:03:15.909Z,62.30
2019-02-25T02:04:21.936Z,62.50
2019-02-25T02:05:26.012Z,62.50
2019-02-25T02:06:30.035Z,62.70
2019-02-25T02:07:34.110Z,63.40
2019-02-25T02:08:41.028Z,62.50
2019-02-25T02:09:50.821Z,62.50
2019-02-25T02:10:55.799Z,62.50
2019-02-25T02:12:05.211Z,62.40
2019-02-25T02:13:14.029Z,62.30
2019-02-25T02:14:15.932Z,62.20
2019-02-25T02:15:28.239Z,62.30
2019-02-25T02:16:40.140Z,62.20
2019-02-25T02:17:49.266Z,62.30
2019-02-25T02:18:56.759Z,62.40
2019-02-25T02:20:03.654Z,62.20
2019-02-25T02:21:11.786Z,62.20
2019-02-25T02:22:24.237Z,62.20
2019-02-25T02:23:28.932Z,62.20
2019-02-25T02:24:33.033Z,62.30
2019-02-25T02:25:38.384Z,62.30
2019-02-25T02:26:43.458Z,62.40
2019-02-25T02:27:48.493Z,62.30
2019-02-25T02:28:52.493Z,62.20
2019-02-25T02:29:56.451Z,62.30
2019-02-25T02:31:00.859Z,62.30
2019-02-25T02:32:05.483Z,62.30
2019-02-25T02:33:12.489Z,62.20
2019-02-25T02:34:17.905Z,62.20
2019-02-25T02:35:23.637Z,62.10
2019-02-25T02:36:30.915Z,62.90
2019-02-25T02:37:34.970Z,62.00
2019-02-25T02:38:40.045Z,62.10
2019-02-25T02:39:44.151Z,62.20
2019-02-25T02:40:49.681Z,62.20
2019-02-25T02:42:18.721Z,62.20
2019-02-25T02:43:22.894Z,62.10
2019-02-25T02:44:31.080Z,62.10
2019-02-25T02:45:56.644Z,62.00
2019-02-25T02:47:24.076Z,62.20
2019-02-25T02:48:43.757Z,62.20
2019-02-25T02:49:55.549Z,62.20
2019-02-25T02:50:59.969Z,62.30
2019-02-25T02:52:05.735Z,62.30
2019-02-25T02:53:14.789Z,62.20
2019-02-25T02:54:20.872Z,62.20
2019-02-25T02:55:27.939Z,62.00
2019-02-25T02:56:34.267Z,62.10
2019-02-25T02:57:38.437Z,62.10
2019-02-25T02:58:51.444Z,62.40
2019-02-25T02:59:59.337Z,62.30
2019-02-25T03:01:04.080Z,62.40
2019-02-25T03:02:15.479Z,62.20
2019-02-25T03:03:19.769Z,62.10
2019-02-25T03:04:27.042Z,62.20
2019-02-25T03:05:39.374Z,62.30
2019-02-25T03:06:43.420Z,62.20
2019-02-25T03:07:48.076Z,62.20
2019-02-25T03:08:54.303Z,62.40
2019-02-25T03:11:26.783Z,62.10
2019-02-25T03:12:39.962Z,62.20
2019-02-25T03:13:45.670Z,62.20
2019-02-25T03:14:54.374Z,62.10
2019-02-25T03:16:00.093Z,62.10
2019-02-25T03:17:04.787Z,62.80
2019-02-25T03:18:09.220Z,62.00
2019-02-25T03:19:13.494Z,61.80
2019-02-25T03:20:18.884Z,62.00
2019-02-25T03:21:26.006Z,62.10
2019-02-25T03:22:32.401Z,62.20
2019-02-25T03:23:37.901Z,62.40
2019-02-25T03:24:43.765Z,62.40
2019-02-25T03:25:49.640Z,62.20
2019-02-25T03:26:57.652Z,62.10
2019-02-25T03:28:01.913Z,62.20
2019-02-25T03:29:11.443Z,62.50
2019-02-25T03:30:20.741Z,62.70
2019-02-25T03:31:30.949Z,62.60
2019-02-25T03:32:35.486Z,62.80
2019-02-25T03:33:42.811Z,62.80
2019-02-25T03:34:51.807Z,62.80
2019-02-25T03:35:58.938Z,62.90
2019-02-25T03:37:05.068Z,62.90
2019-02-25T03:38:12.243Z,62.90
2019-02-25T03:39:16.267Z,63.00
2019-02-25T03:40:29.979Z,63.10
2019-02-25T03:41:37.518Z,63.20
2019-02-25T03:42:43.296Z,63.30
2019-02-25T03:43:52.910Z,63.50
2019-02-25T03:44:58.968Z,63.50
2019-02-25T03:46:04.598Z,63.50
2019-02-25T03:47:12.924Z,63.60
2019-02-25T03:48:20.099Z,63.50
2019-02-25T03:49:24.007Z,63.50
2019-02-25T03:50:30.627Z,63.60
2019-02-25T03:51:34.623Z,63.70
2019-02-25T03:52:38.576Z,63.60
2019-02-25T03:53:42.736Z,63.70
2019-02-25T03:54:48.455Z,63.70
2019-02-25T03:55:54.195Z,63.70
2019-02-25T03:57:03.463Z,63.80
2019-02-25T03:58:18.545Z,63.80
2019-02-25T03:59:27.565Z,63.70
2019-02-25T04:00:34.099Z,64.00
2019-02-25T04:01:40.049Z,64.00
2019-02-25T04:02:47.321Z,64.00
2019-02-25T04:03:55.510Z,63.90
2019-02-25T04:05:12.501Z,64.00
2019-02-25T04:06:16.822Z,64.00
2019-02-25T04:07:21.001Z,64.00
2019-02-25T04:08:47.209Z,64.00
2019-02-25T04:09:53.230Z,64.20
2019-02-25T04:11:05.189Z,64.20
2019-02-25T04:12:14.605Z,64.30
2019-02-25T04:13:20.617Z,64.30
2019-02-25T04:14:27.375Z,64.50
2019-02-25T04:15:36.992Z,64.50
2019-02-25T04:16:42.239Z,64.50
2019-02-25T04:17:46.466Z,64.60
2019-02-25T04:18:51.242Z,64.70
2019-02-25T04:19:57.064Z,64.70
2019-02-25T04:21:01.973Z,64.60
2019-02-25T04:22:07.339Z,64.70
2019-02-25T04:23:15.077Z,64.80
2019-02-25T04:24:21.828Z,64.90
2019-02-25T04:25:30.491Z,65.00
2019-02-25T04:26:37.000Z,65.00
2019-02-25T04:27:42.694Z,65.10
2019-02-25T04:28:46.770Z,65.20
2019-02-25T04:29:52.061Z,65.30
2019-02-25T04:31:00.329Z,65.30
2019-02-25T04:32:05.384Z,65.40
2019-02-25T04:33:14.519Z,65.40
2019-02-25T04:34:21.744Z,65.40
2019-02-25T04:35:31.379Z,65.60
2019-02-25T04:36:38.239Z,65.70
2019-02-25T04:37:44.815Z,65.60
2019-02-25T04:38:51.457Z,65.80
2019-02-25T04:40:00.235Z,65.90
2019-02-25T04:41:04.869Z,65.90
2019-02-25T04:42:12.549Z,65.90
2019-02-25T04:43:17.550Z,66.00
2019-02-25T04:44:21.947Z,66.00
2019-02-25T04:45:30.600Z,66.10
2019-02-25T04:46:36.033Z,66.20
2019-02-25T04:47:43.437Z,66.30
2019-02-25T04:48:53.672Z,66.30
2019-02-25T04:49:59.930Z,66.50
2019-02-25T04:51:07.864Z,66.50
2019-02-25T04:52:16.542Z,66.60
2019-02-25T04:53:22.168Z,66.70
2019-02-25T04:54:26.139Z,66.70
2019-02-25T04:55:31.346Z,66.80
2019-02-25T04:56:35.231Z,66.70
2019-02-25T04:57:39.271Z,66.80
2019-02-25T04:58:46.304Z,66.80
2019-02-25T04:59:51.771Z,66.90
2019-02-25T05:00:55.807Z,67.00
2019-02-25T05:02:02.776Z,66.90
2019-02-25T05:03:08.537Z,66.80
2019-02-25T05:04:18.567Z,67.00
2019-02-25T05:05:23.926Z,67.00
2019-02-25T05:06:36.877Z,67.00
2019-02-25T05:07:39.504Z,67.00
2019-02-25T05:08:50.801Z,67.10
2019-02-25T05:10:02.843Z,67.00
2019-02-25T05:11:10.590Z,67.20
2019-02-25T05:12:29.883Z,67.30
2019-02-25T05:13:34.765Z,67.20
2019-02-25T05:14:46.022Z,67.20
2019-02-25T05:15:55.506Z,67.30
2019-02-25T05:17:08.743Z,67.30
2019-02-25T05:18:23.191Z,67.40
2019-02-25T05:19:28.821Z,67.50
2019-02-25T05:20:34.959Z,67.40
2019-02-25T05:21:45.408Z,67.40
2019-02-25T05:23:09.274Z,67.50
2019-02-25T05:24:19.703Z,67.60
2019-02-25T05:25:22.408Z,67.70
2019-02-25T05:27:51.467Z,67.90
2019-02-25T05:28:56.529Z,68.10
2019-02-25T05:30:05.697Z,68.10
2019-02-25T05:31:10.366Z,68.10
2019-02-25T05:32:38.434Z,68.40
2019-02-25T05:33:51.341Z,68.20
2019-02-25T05:34:58.089Z,69.10
2019-02-25T05:36:05.786Z,68.20
2019-02-25T05:37:13.095Z,68.30
2019-02-25T05:38:20.174Z,68.40
2019-02-25T05:39:25.334Z,68.40
2019-02-25T05:40:38.630Z,68.50
2019-02-25T05:41:45.660Z,68.50
2019-02-25T05:42:51.363Z,68.40
2019-02-25T05:44:08.614Z,68.60
2019-02-25T05:45:19.410Z,68.60
2019-02-25T05:46:24.599Z,68.60
2019-02-25T05:47:30.244Z,68.60
2019-02-25T05:48:34.268Z,68.80
2019-02-25T05:49:38.533Z,68.60
2019-02-25T05:52:22.997Z,68.60
2019-02-25T05:53:28.695Z,68.60
2019-02-25T05:54:32.925Z,68.60
2019-02-25T05:55:37.157Z,68.70
2019-02-25T05:56:43.989Z,68.80
2019-02-25T05:57:48.116Z,68.60
2019-02-25T05:58:52.835Z,68.60
2019-02-25T06:00:06.333Z,68.80
2019-02-25T06:01:10.432Z,68.70
2019-02-25T06:02:14.667Z,68.60
2019-02-25T06:03:21.713Z,68.60
2019-02-25T06:04:25.753Z,68.60
2019-02-25T06:05:30.132Z,68.50
2019-02-25T06:06:34.157Z,68.40
2019-02-25T06:07:40.004Z,68.40
2019-02-25T06:08:44.131Z,68.40
2019-02-25T06:09:48.475Z,68.40
2019-02-25T06:10:52.576Z,68.20
2019-02-25T06:11:58.313Z,68.20
2019-02-25T06:13:07.744Z,68.10
2019-02-25T06:14:13.734Z,67.90
2019-02-25T06:15:20.716Z,68.00
2019-02-25T06:16:26.563Z,67.90
2019-02-25T06:17:30.665Z,67.80
2019-02-25T06:18:35.827Z,67.70
2019-02-25T06:19:43.702Z,67.70
2019-02-25T06:20:50.594Z,67.70
2019-02-25T06:21:59.030Z,67.60
2019-02-25T06:23:09.801Z,67.70
2019-02-25T06:24:19.198Z,67.60
2019-02-25T06:25:28.164Z,67.40
2019-02-25T06:26:38.617Z,67.50
2019-02-25T06:27:46.956Z,67.50
2019-02-25T06:28:57.795Z,67.60
2019-02-25T06:30:01.472Z,67.50
2019-02-25T06:31:12.665Z,67.60
2019-02-25T06:32:22.709Z,67.50
2019-02-25T06:33:33.056Z,67.70
2019-02-25T06:34:40.189Z,67.70
2019-02-25T06:35:57.823Z,67.60
2019-02-25T06:37:11.233Z,67.50
2019-02-25T06:38:18.150Z,67.80
2019-02-25T06:39:29.288Z,68.00
2019-02-25T06:40:42.727Z,67.90
2019-02-25T06:42:03.427Z,67.90
2019-02-25T06:43:11.318Z,67.60
2019-02-25T06:44:22.974Z,67.60
2019-02-25T06:45:47.811Z,67.40
2019-02-25T06:46:46.565Z,67.20
2019-02-25T06:47:56.181Z,67.40
2019-02-25T06:49:05.550Z,67.40
2019-02-25T06:50:13.512Z,67.10
2019-02-25T06:51:21.017Z,67.20
2019-02-25T06:52:31.252Z,67.20
2019-02-25T06:53:39.426Z,67.40
2019-02-25T06:54:49.102Z,67.20
2019-02-25T06:56:14.275Z,67.20
2019-02-25T06:57:26.167Z,67.00
2019-02-25T06:58:34.272Z,66.80
2019-02-25T07:01:09.891Z,66.90
2019-02-25T07:02:20.039Z,66.80
2019-02-25T07:03:36.628Z,66.60
2019-02-25T07:06:20.164Z,66.50
2019-02-25T07:07:53.802Z,66.60
2019-02-25T07:09:03.792Z,66.80
2019-02-25T07:10:15.162Z,67.00
2019-02-25T07:11:23.698Z,66.80
2019-02-25T07:12:33.916Z,66.80
2019-02-25T07:13:44.987Z,66.50
2019-02-25T07:14:53.313Z,66.70
2019-02-25T07:16:05.792Z,66.60
2019-02-25T07:17:26.686Z,66.60
2019-02-25T07:18:41.243Z,66.60
2019-02-25T07:19:49.125Z,66.60
2019-02-25T07:21:09.713Z,66.50
2019-02-25T07:22:34.694Z,66.70
2019-02-25T07:23:52.732Z,66.60
2019-02-25T07:25:05.957Z,66.60
2019-02-25T07:26:29.229Z,66.70
2019-02-25T07:27:52.378Z,66.80
2019-02-25T07:29:15.517Z,66.90
2019-02-25T07:30:23.436Z,67.00
2019-02-25T07:31:45.317Z,67.00
2019-02-25T07:33:00.571Z,67.00
2019-02-25T07:35:25.935Z,67.20
2019-02-25T07:36:51.078Z,67.30
2019-02-25T07:38:09.845Z,67.20
2019-02-25T07:39:25.122Z,67.40
2019-02-25T07:40:42.259Z,67.30
2019-02-25T07:41:54.962Z,67.40
2019-02-25T07:43:15.828Z,67.30
2019-02-25T07:44:24.204Z,67.30
2019-02-25T07:45:38.250Z,67.50
2019-02-25T07:46:46.466Z,67.50
2019-02-25T07:48:15.751Z,67.60
2019-02-25T07:49:22.770Z,67.60
2019-02-25T07:50:49.540Z,67.60
2019-02-25T07:51:58.132Z,67.70
2019-02-25T07:53:06.460Z,67.70
2019-02-25T07:54:27.205Z,67.80
2019-02-25T07:55:39.270Z,67.80
2019-02-25T07:57:05.347Z,67.90
2019-02-25T07:58:18.422Z,67.90
2019-02-25T07:59:28.626Z,68.00
2019-02-25T08:00:42.155Z,68.00
2019-02-25T08:01:52.920Z,68.00
2019-02-25T08:03:02.960Z,68.00
2019-02-25T08:04:27.353Z,67.90
2019-02-25T08:05:32.992Z,68.00
2019-02-25T08:06:57.860Z,68.10
2019-02-25T08:08:04.318Z,68.20
2019-02-25T08:09:26.162Z,68.50
2019-02-25T08:10:41.230Z,68.60
2019-02-25T08:12:00.962Z,68.60
2019-02-25T08:13:27.112Z,68.60
2019-02-25T08:14:45.209Z,68.80
2019-02-25T08:16:53.724Z,68.90
2019-02-25T08:18:09.939Z,69.00
2019-02-25T08:19:15.895Z,69.10
2019-02-25T08:20:23.314Z,69.10
2019-02-25T08:21:53.350Z,69.20
2019-02-25T08:22:46.493Z,69.10
2019-02-25T08:23:56.751Z,69.30
2019-02-25T08:25:08.830Z,69.30
2019-02-25T08:26:21.941Z,69.50
2019-02-25T08:27:35.162Z,69.40
2019-02-25T08:28:57.387Z,69.50
2019-02-25T08:30:03.081Z,69.40
2019-02-25T08:31:10.760Z,69.30
2019-02-25T08:32:21.626Z,69.20
2019-02-25T08:33:45.562Z,69.20
2019-02-25T08:34:54.639Z,69.20
2019-02-25T08:36:30.625Z,69.10
2019-02-25T08:37:39.981Z,69.00
2019-02-25T08:39:03.158Z,69.10
2019-02-25T08:40:30.662Z,69.10
2019-02-25T08:41:45.392Z,69.10
2019-02-25T08:42:55.866Z,69.00
2019-02-25T08:44:05.487Z,69.00
2019-02-25T08:45:14.924Z,69.00
2019-02-25T08:46:26.641Z,69.10
2019-02-25T08:47:33.622Z,69.10
2019-02-25T08:48:51.369Z,69.10
2019-02-25T08:50:03.705Z,69.20
2019-02-25T08:51:11.823Z,69.10
2019-02-25T08:52:19.419Z,69.10
2019-02-25T08:53:26.478Z,69.00
2019-02-25T08:54:36.122Z,69.20
2019-02-25T08:55:45.749Z,69.10
2019-02-25T08:56:53.748Z,69.20
2019-02-25T08:58:02.424Z,69.10
2019-02-25T08:59:11.226Z,69.00
2019-02-25T09:00:24.148Z,69.00
2019-02-25T09:03:14.921Z,69.00
2019-02-25T09:04:27.535Z,69.10
2019-02-25T09:05:35.468Z,69.00
2019-02-25T09:07:03.442Z,69.00
2019-02-25T09:08:13.205Z,68.90
2019-02-25T09:15:35.939Z,69.40
2019-02-25T09:16:44.538Z,69.50
2019-02-25T09:17:49.532Z,69.70
2019-02-25T09:18:55.434Z,69.50
2019-02-25T09:19:59.718Z,69.50
2019-02-25T09:21:08.042Z,69.50
2019-02-25T09:22:14.383Z,69.70
2019-02-25T09:26:11.953Z,69.70
2019-02-25T09:27:16.728Z,69.70
2019-02-25T09:28:38.104Z,69.80
2019-02-25T09:29:39.002Z,69.70
2019-02-25T09:30:47.415Z,69.70
2019-02-25T09:32:00.260Z,70.00
2019-02-25T09:33:08.920Z,69.90
2019-02-25T09:34:16.292Z,69.90
2019-02-25T09:35:22.698Z,69.80
2019-02-25T09:36:27.001Z,69.80
2019-02-25T09:37:34.547Z,70.00
2019-02-25T09:38:40.740Z,70.10
2019-02-25T09:39:47.074Z,70.20
2019-02-25T09:40:52.621Z,70.20
2019-02-25T09:42:05.780Z,70.20
2019-02-25T09:43:12.619Z,70.20
2019-02-25T09:44:20.861Z,70.30
2019-02-25T09:45:26.654Z,70.30
2019-02-25T09:46:33.896Z,70.30
2019-02-25T09:47:40.246Z,71.20
2019-02-25T09:48:46.840Z,70.50
2019-02-25T09:49:55.194Z,70.40
2019-02-25T09:51:01.558Z,70.60
2019-02-25T09:52:05.693Z,70.30
2019-02-25T09:53:10.834Z,70.50
2019-02-25T09:54:16.545Z,70.40
2019-02-25T09:55:23.620Z,70.40
2019-02-25T09:56:28.781Z,70.40
2019-02-25T09:57:39.117Z,70.40
2019-02-25T09:58:45.400Z,70.40
2019-02-25T09:59:50.166Z,70.20
2019-02-25T10:00:54.488Z,70.10
2019-02-25T10:01:58.668Z,70.80
2019-02-25T10:03:08.237Z,69.90
2019-02-25T10:04:15.378Z,69.80
2019-02-25T10:05:22.238Z,69.70
2019-02-25T10:06:28.154Z,69.60
2019-02-25T10:07:40.429Z,69.60
2019-02-25T10:08:48.288Z,69.60
2019-02-25T10:09:54.227Z,69.50
2019-02-25T10:11:02.204Z,69.60
2019-02-25T10:12:06.633Z,69.60
2019-02-25T10:13:15.525Z,69.60
2019-02-25T10:14:20.668Z,69.60
2019-02-25T10:15:30.947Z,69.40
2019-02-25T10:16:38.122Z,69.50
2019-02-25T10:17:43.437Z,69.40
2019-02-25T10:18:51.150Z,69.30
2019-02-25T10:19:55.437Z,69.30
2019-02-25T10:21:04.234Z,69.40
2019-02-25T10:22:11.404Z,69.50
2019-02-25T10:23:15.616Z,69.60
2019-02-25T10:24:22.474Z,69.50
2019-02-25T10:25:30.890Z,69.40
2019-02-25T10:26:36.612Z,69.30
2019-02-25T10:27:43.304Z,69.20
2019-02-25T10:28:49.160Z,69.50
2019-02-25T10:29:58.373Z,69.60
2019-02-25T10:31:03.426Z,69.40
2019-02-25T10:32:10.179Z,69.30
2019-02-25T10:33:19.814Z,69.30
2019-02-25T10:34:25.895Z,69.40
2019-02-25T10:35:37.503Z,69.30
2019-02-25T10:36:48.116Z,69.50
2019-02-25T10:38:01.048Z,69.40
2019-02-25T10:39:11.280Z,69.40
2019-02-25T10:40:19.758Z,69.40
2019-02-25T10:41:25.590Z,69.50
2019-02-25T10:42:31.547Z,69.60
2019-02-25T10:43:42.929Z,69.70
2019-02-25T10:44:59.326Z,69.50
2019-02-25T10:46:19.284Z,69.50
2019-02-25T10:47:28.573Z,69.40
2019-02-25T10:48:38.600Z,69.40
2019-02-25T10:49:48.059Z,69.40
2019-02-25T10:50:56.496Z,69.30
2019-02-25T10:52:02.281Z,69.40
2019-02-25T10:53:06.404Z,69.40
2019-02-25T10:54:10.590Z,69.40
2019-02-25T10:55:31.340Z,69.20
2019-02-25T10:56:42.854Z,69.00
2019-02-25T10:57:56.627Z,68.80
2019-02-25T10:59:17.626Z,68.70
2019-02-25T11:00:24.007Z,68.70
2019-02-25T11:01:31.320Z,68.70
2019-02-25T11:02:46.836Z,68.70
2019-02-25T11:03:52.602Z,68.70
2019-02-25T11:05:01.145Z,68.60
2019-02-25T11:06:06.921Z,68.50
2019-02-25T11:07:16.155Z,68.40
2019-02-25T11:08:28.148Z,68.40
2019-02-25T11:09:41.903Z,68.20
2019-02-25T11:11:01.660Z,68.10
2019-02-25T11:12:10.389Z,68.00
2019-02-25T11:13:14.318Z,67.90
2019-02-25T11:14:19.947Z,67.80
2019-02-25T11:15:28.170Z,67.90
2019-02-25T11:16:32.141Z,67.90
2019-02-25T11:17:58.926Z,67.90
2019-02-25T11:18:58.588Z,67.90
2019-02-25T11:20:12.900Z,67.70
2019-02-25T11:21:18.541Z,67.70
2019-02-25T11:22:24.196Z,67.80
2019-02-25T11:23:31.091Z,67.70
2019-02-25T11:24:55.520Z,67.70
2019-02-25T11:25:58.301Z,67.60
2019-02-25T11:27:07.338Z,67.50
2019-02-25T11:28:24.796Z,67.50
2019-02-25T11:30:49.252Z,67.50
2019-02-25T11:31:55.638Z,67.50
2019-02-25T11:33:00.076Z,67.50
2019-02-25T11:34:08.072Z,67.40
2019-02-25T11:35:15.514Z,67.40
2019-02-25T11:36:24.348Z,67.50
2019-02-25T11:37:39.238Z,67.40
2019-02-25T11:38:48.308Z,67.40
2019-02-25T11:39:59.805Z,67.20
2019-02-25T11:41:11.295Z,67.20
2019-02-25T11:42:26.234Z,67.20
2019-02-25T11:43:44.068Z,67.20
2019-02-25T11:44:54.101Z,67.20
2019-02-25T11:46:00.742Z,67.20
2019-02-25T11:47:06.925Z,67.00
2019-02-25T11:48:14.026Z,67.00
2019-02-25T11:49:33.281Z,67.00
2019-02-25T11:50:42.425Z,66.80
2019-02-25T11:51:48.802Z,66.90
2019-02-25T11:52:55.516Z,66.80
2019-02-25T11:54:05.898Z,66.80
2019-02-25T11:56:38.739Z,66.80
2019-02-25T11:57:46.822Z,66.80
2019-02-25T11:58:54.295Z,66.80
2019-02-25T11:59:58.418Z,66.90
2019-02-25T12:01:04.497Z,67.00
2019-02-25T12:02:24.969Z,67.00
2019-02-25T12:03:27.130Z,67.10
2019-02-25T12:04:37.605Z,67.40
2019-02-25T12:05:58.080Z,67.50
2019-02-25T12:06:55.385Z,67.50
2019-02-25T12:08:04.605Z,67.40
2019-02-25T12:09:12.476Z,67.20
2019-02-25T12:10:22.573Z,67.10
2019-02-25T12:11:30.365Z,67.00
2019-02-25T12:12:44.378Z,67.00
2019-02-25T12:13:53.997Z,67.00
2019-02-25T12:15:00.345Z,66.70
2019-02-25T12:16:09.483Z,66.40
2019-02-25T12:17:20.843Z,66.30
2019-02-25T12:18:29.898Z,66.10
2019-02-25T12:21:00.138Z,66.10
2019-02-25T12:22:07.295Z,65.90
2019-02-25T12:23:16.426Z,65.70
2019-02-25T12:24:23.229Z,65.60
2019-02-25T12:25:35.040Z,65.50
2019-02-25T12:26:44.123Z,65.30
2019-02-25T12:27:48.362Z,64.80
2019-02-25T12:28:54.051Z,65.00
2019-02-25T12:29:59.949Z,65.00
2019-02-25T12:31:06.719Z,64.70
2019-02-25T12:32:13.513Z,64.70
2019-02-25T12:33:20.964Z,64.70
2019-02-25T12:34:25.464Z,64.50
2019-02-25T12:35:35.247Z,64.50
2019-02-25T12:36:41.453Z,64.50
2019-02-25T12:37:48.191Z,64.60
2019-02-25T12:38:56.235Z,64.70
2019-02-25T12:40:04.079Z,64.70
2019-02-25T12:41:16.582Z,64.80
2019-02-25T12:42:24.488Z,65.00
2019-02-25T12:43:35.789Z,64.80
2019-02-25T12:44:44.111Z,64.80
2019-02-25T12:45:51.171Z,64.80
2019-02-25T12:46:55.345Z,64.80
2019-02-25T12:48:03.614Z,64.70
2019-02-25T12:49:10.731Z,64.70
2019-02-25T12:50:22.685Z,64.60
2019-02-25T12:51:29.755Z,64.70
2019-02-25T12:52:34.348Z,64.60
2019-02-25T12:53:39.437Z,64.70
2019-02-25T12:54:46.455Z,64.80
2019-02-25T12:55:52.259Z,65.00
2019-02-25T12:57:01.805Z,64.90
2019-02-25T12:58:05.812Z,65.10
2019-02-25T12:59:12.627Z,65.20
2019-02-25T13:00:25.999Z,65.10
2019-02-25T13:01:27.640Z,64.90
2019-02-25T13:02:33.955Z,65.00
2019-02-25T13:03:38.686Z,65.10
2019-02-25T13:04:49.339Z,65.20
2019-02-25T13:05:55.094Z,65.30
2019-02-25T13:07:00.693Z,65.20
2019-02-25T13:08:09.125Z,65.20
2019-02-25T13:09:28.758Z,65.30
2019-02-25T13:10:34.730Z,65.10
2019-02-25T13:13:12.001Z,65.00
2019-02-25T13:14:13.317Z,65.10
2019-02-25T13:15:19.814Z,65.20
2019-02-25T13:17:56.813Z,65.20
2019-02-25T13:19:04.403Z,65.30
2019-02-25T13:20:14.793Z,65.30
2019-02-25T13:21:21.883Z,65.20
2019-02-25T13:22:35.801Z,65.40
2019-02-25T13:23:42.137Z,65.20
2019-02-25T13:24:47.370Z,65.30
2019-02-25T13:26:06.971Z,65.30
2019-02-25T13:27:06.451Z,65.40
2019-02-25T13:28:18.111Z,65.40
2019-02-25T13:29:27.018Z,65.40
2019-02-25T13:32:00.580Z,65.10
2019-02-25T13:33:05.133Z,64.90
2019-02-25T13:34:16.052Z,64.80
2019-02-25T13:35:30.641Z,64.70
2019-02-25T13:36:38.093Z,64.70
2019-02-25T13:37:44.890Z,64.60
2019-02-25T13:38:51.609Z,64.50
2019-02-25T13:39:58.674Z,64.60
2019-02-25T13:41:06.559Z,64.70
2019-02-25T13:43:51.779Z,64.80
2019-02-25T13:44:56.917Z,64.90
2019-02-25T13:46:10.211Z,65.00
2019-02-25T13:47:17.212Z,65.20
2019-02-25T13:48:26.153Z,65.40
2019-02-25T13:49:30.387Z,65.50
2019-02-25T13:50:38.432Z,65.60
2019-02-25T13:51:49.121Z,65.70
2019-02-25T13:52:53.493Z,65.80
2019-02-25T13:53:58.769Z,66.00
2019-02-25T13:55:12.032Z,66.10
2019-02-25T13:56:25.722Z,66.90
2019-02-25T13:57:31.406Z,66.10
2019-02-25T13:58:36.038Z,66.20
2019-02-25T13:59:43.921Z,66.20
2019-02-25T14:00:51.852Z,66.20
2019-02-25T14:01:57.685Z,66.20
2019-02-25T14:03:05.933Z,66.20
2019-02-25T14:04:23.878Z,66.60
2019-02-25T14:05:40.691Z,66.30
2019-02-25T14:06:42.738Z,66.30
2019-02-25T14:07:48.900Z,66.30
2019-02-25T14:08:52.889Z,66.20
2019-02-25T14:10:04.095Z,66.20
2019-02-25T14:11:17.367Z,66.20
2019-02-25T14:12:27.014Z,66.40
2019-02-25T14:13:32.685Z,67.20
2019-02-25T14:14:40.077Z,66.60
2019-02-25T14:15:44.443Z,66.70
2019-02-25T14:16:59.121Z,66.70
2019-02-25T14:18:18.173Z,66.90
2019-02-25T14:19:25.060Z,67.30
2019-02-25T14:20:31.945Z,67.40
2019-02-25T14:21:39.703Z,67.60
2019-02-25T14:24:29.459Z,67.70
2019-02-25T14:25:38.324Z,67.90
2019-02-25T14:26:50.306Z,68.00
2019-02-25T14:27:58.171Z,68.10
2019-02-25T14:29:16.438Z,68.20
2019-02-25T14:30:26.661Z,68.20
2019-02-25T14:31:32.367Z,68.50
2019-02-25T14:32:42.662Z,68.50
2019-02-25T14:33:52.076Z,68.60
2019-02-25T14:35:05.153Z,68.80
2019-02-25T14:36:28.142Z,68.80
2019-02-25T14:37:24.932Z,68.80
2019-02-25T14:38:32.301Z,68.90
2019-02-25T14:39:38.289Z,69.00
2019-02-25T14:40:46.574Z,69.20
2019-02-25T14:41:54.961Z,69.30
2019-02-25T14:43:00.563Z,69.30
2019-02-25T14:44:08.784Z,69.40
2019-02-25T14:45:14.733Z,69.50
2019-02-25T14:46:26.827Z,69.50
2019-02-25T14:47:36.809Z,69.60
2019-02-25T14:48:41.883Z,69.90
2019-02-25T14:49:48.212Z,69.70
2019-02-25T14:51:13.059Z,69.70
2019-02-25T14:52:24.351Z,69.70
2019-02-25T14:53:41.749Z,69.80
2019-02-25T14:54:52.447Z,70.00
2019-02-25T14:56:03.845Z,70.00
2019-02-25T14:57:21.101Z,70.20
2019-02-25T14:58:31.366Z,70.40
2019-02-25T14:59:34.307Z,70.50
2019-02-25T15:00:41.014Z,70.70
2019-02-25T15:01:50.645Z,70.70
2019-02-25T15:02:59.523Z,71.00
2019-02-25T15:04:08.915Z,71.20
2019-02-25T15:05:15.026Z,71.30
2019-02-25T15:06:22.198Z,71.60
2019-02-25T15:07:32.408Z,71.80
2019-02-25T15:08:42.431Z,72.80
2019-02-25T15:09:53.396Z,72.20
2019-02-25T15:11:01.902Z,72.50
2019-02-25T15:12:27.447Z,72.50
2019-02-25T15:13:37.459Z,72.70
2019-02-25T15:14:40.815Z,72.80
2019-02-25T15:15:59.214Z,72.90
2019-02-25T15:17:20.642Z,73.10
2019-02-25T15:18:42.443Z,73.20
2019-02-25T15:19:51.474Z,73.40